Kenora Airport
CYQK : now visible

Airfield :











YOU CAN JOIN US ON...

 
LOGIN :

Register | Disclaimer

   EN    FR    IT 

 









Legend :    VFR   Marginal VFR   IFR   Intensive IFR   Very Intensive IFR
Visi :
Ceiling :
>= 8 km
>= 3000ft
5 to 8 km
1000 to 3000 ft
1500m to 5 km
500 to 1000 ft
800 to 1500m
200 to 500 ft
< 800m
< 200 ft
Symbols :   Thunderstorms  Fog  Heavy snow  Heavy precipitations  Wind > 20 kt






- Airport Elevation : 1332 ft
- IATA code : YQK


CYQK - Kenora

CURRENT METAR :
  • 050800Z 16004KT 8SM FEW080 BKN140 OVC240 19/16 A2983 RMK AC2AC4CI5 FU SLP100 DENSITY ALT 2200FT

EXPIRED METARs :
  • 050700Z 17004KT 8SM BKN072 OVC140 19/17 A2984 RMK AC6AC2 FU SLP104 DENSITY ALT 2200FT
  • 050600Z 16004KT 8SM OVC076 20/17 A2987 RMK AC8 FU SLP113 DENSITY ALT 2300FT

TAF TAF CYQK
Valid from the 05 at 08:00 until the 05 at 20:00 UTC


050738Z 0508/0520 VRB03KT P6SM SCT040 BKN080
TEMPO 0508/0512 VRB12G22KT 5SM -SHRA BR FU BKN040
PROB30 0508/0512 VRB15G25KT 2SM TSRA FU BKN040CB
FM051200 22008G18KT P6SM BKN025
TEMPO 0512/0518 5SM -SHRA FU BKN008
PROB30 0512/0518 VRB15G25KT 2SM TSRA FU BKN007 OVC030CB
FM051800 32012G22KT P6SM BKN025
TEMPO 0518/0520 BKN020 RMK NXT FCST BY 051400Z
CZWG FIR / North America



MET'MAP, your aeronautical weather chart ! - Copyright ORBIFLY December 2007 - Disclaimer

ORBIFLY MET'MAP TEAM :

Programming & Development : Alexandra Zaïnal
Concept & original design : Baudouin d'Aumeries
Assistance for programming : Marc-Olivier Méhu
Technical & hardware support : Manuel Goepfert

Contact : metmap@orbifly.com




SOURCES & CREDITS :

   NOAA       Earth
Advisory